Pagrindinis puslapis
METAR-TAF:

METAR-TAF

Oro uostai :

Rio Grandė, Argentina

platuma: 53-48S, ilguma: 067-45W, Aukštis: 13 m

METAR: trūkstamas

Laikas: 09:23 (12:23 UTC)

Prognozė

Ataskaita buvo paskelbta 1 valandą ir 23 minutes, ne 11:00 UTC
Prognozė galioja nuo 24 metu 12 UTC su 25 metu 12 UTC
Vėjas 15 kt iš Šiaurės Vakarų
Matomumas 10 km arba daugiau
nėra debesų žemiau 1500 m ir nėra kamuolinių lietaus debesų
Tikimybė 40% :
Laikinai
nuo 24 metu 16 UTC su 24 metu 22 UTC
Vėjas 20 kt iš Šiaurės/Šiaurės Vakarų su gūsio iki 30 kt
Matomumas 10 km arba daugiau
Išsisklaidę debesys ne aukštis 2000 ft
Su prošvaistėmis ne aukštis 10000 ft
Tapsmas
nuo 25 metu 02 UTC su 25 metu 04 UTC
Vėjas 12 kt iš Vakarų/Šiaurės Vakarų

TAF: SAWE 241100Z 2412/2512 32015KT CAVOK TX05/2418Z TN00/2412Z PROB40 TEMPO 2416/2422 34020G30KT 9999 SCT020 BKN100 BECMG 2502/2504 29012KT

Orai ataskaitas ir orų prognozės (METAR, TAF).

turimą stotys yra geltonos ir raudonos taškus žemėlapyje.

Perkelti pele per norėdami pamatyti stoties vardą.

Tada spustelėkite, norėdami matyti oro stebėjimo ir prognozės.

Norėdami pakeisti žemėlapį: spustelėkite ant žalios mygtukų su juodo kryžiaus žemyn,; žalią mygtuką su brūkšneliu, jei norite nutolinti; arba žalių rodyklių gretimoms žemėlapius.


METAR-TAF: